Time;durP1;ratioP1;P1;durP2;ratioP2;P2;SDS_P1;SDS_P2;PMS_P1;PMS_P2;Temp;Humidity;BMP_temperature;BMP_pressure;BME280_temperature;BME280_humidity;BME280_pressure;Samples;Min_cycle;Max_cycle;Signal;HPM_P1;HPM_P2
2023/02/05 00:01:28;;;;;;;;;;;;;;;-1.95;70.87;94695.94;4148336;28;19965;-62
2023/02/05 00:03:30;;;;;;;;;;;;;;;-1.95;71.08;94708.78;4148676;28;19976;-61
2023/02/05 00:05:31;;;;;;;;;;;;;;;-1.89;70.56;94703.31;4148448;28;19921;-64
2023/02/05 00:07:33;;;;;;;;;;;;;;;-1.81;70.68;94706.28;4139867;28;19928;-60
2023/02/05 00:09:35;;;;;;;;;;;;;;;-1.76;70.38;94704.28;4149258;28;19922;-62
2023/02/05 00:11:37;;;;;;;;;;;;;;;-1.80;69.93;94702.81;4148614;28;19937;-63
2023/02/05 00:13:39;;;;;;;;;;;;;;;-1.93;69.50;94710.34;4147968;28;20405;-60
2023/02/05 00:15:40;;;;;;;;;;;;;;;-1.84;68.75;94705.63;4148170;28;20402;-62
2023/02/05 00:17:42;;;;;;;;;;;;;;;-1.81;68.27;94710.59;4148507;28;19925;-62
2023/02/05 00:19:43;;;;;;;;;;;;;;;-1.83;67.68;94702.97;4148197;28;19928;-60
2023/02/05 00:21:45;;;;;;;;;;;;;;;-1.85;67.66;94715.06;4146970;28;19925;-60
2023/02/05 00:23:49;;;;;;;;;;;;;;;-1.84;66.68;94716.72;4137586;28;19971;-62
2023/02/05 00:25:50;;;;;;;;;;;;;;;-1.96;66.81;94712.25;4144173;28;19929;-62
2023/02/05 00:27:52;;;;;;;;;;;;;;;-2.08;66.70;94744.56;4147701;28;19922;-62
2023/02/05 00:29:53;;;;;;;;;;;;;;;-2.16;66.82;94711.59;4138431;28;19925;-63
2023/02/05 00:31:55;;;;;;;;;;;;;;;-2.48;67.11;94711.53;4131761;28;19922;-61
2023/02/05 00:33:57;;;;;;;;;;;;;;;-2.38;67.69;94717.03;4135432;28;20020;-61
2023/02/05 00:35:58;;;;;;;;;;;;;;;-2.19;67.64;94721.22;4148609;28;20263;-63
2023/02/05 00:38:00;;;;;;;;;;;;;;;-2.16;67.13;94716.72;4148169;28;20003;-61
2023/02/05 00:40:01;;;;;;;;;;;;;;;-2.10;66.65;94723.28;4160597;28;20398;-62
2023/02/05 00:42:03;;;;;;;;;;;;;;;-2.00;65.94;94710.75;4147412;28;19953;-59
2023/02/05 00:44:04;;;;;;;;;;;;;;;-2.03;65.95;94716.88;4148521;28;19921;-61
2023/02/05 00:46:06;;;;;;;;;;;;;;;-2.06;66.03;94723.03;4142607;28;19929;-61
2023/02/05 00:48:08;;;;;;;;;;;;;;;-2.09;66.07;94720.63;4138509;28;19967;-62
2023/02/05 00:50:09;;;;;;;;;;;;;;;-2.03;66.05;94726.34;4148245;28;20359;-60
2023/02/05 00:52:11;;;;;;;;;;;;;;;-1.97;66.22;94718.31;4146676;28;20099;-61
2023/02/05 00:54:12;;;;;;;;;;;;;;;-1.97;65.98;94726.84;4147150;28;19921;-61
2023/02/05 00:56:14;;;;;;;;;;;;;;;-1.94;65.93;94726.66;4136283;28;19957;-63
2023/02/05 00:58:16;;;;;;;;;;;;;;;-1.85;66.33;94725.31;4144558;28;19921;-61
2023/02/05 01:00:17;;;;;;;;;;;;;;;-1.83;65.94;94726.06;4131820;28;20256;-61
2023/02/05 01:02:23;;;;;;;;;;;;;;;-1.94;65.91;94725.84;4140943;28;19976;-60
2023/02/05 01:04:25;;;;;;;;;;;;;;;-1.90;65.32;94727.31;4147349;28;19921;-61
2023/02/05 01:06:26;;;;;;;;;;;;;;;-1.99;65.46;94732.97;4148107;28;20223;-63
2023/02/05 01:08:28;;;;;;;;;;;;;;;-2.03;65.61;94736.59;4140760;28;20491;-62
2023/02/05 01:10:30;;;;;;;;;;;;;;;-2.19;65.89;94739.16;4131577;28;20284;-63
2023/02/05 01:12:32;;;;;;;;;;;;;;;-2.18;66.05;94738.25;4145324;28;20518;-61
2023/02/05 01:14:33;;;;;;;;;;;;;;;-2.21;65.55;94733.28;4147844;28;19972;-61
2023/02/05 01:16:35;;;;;;;;;;;;;;;-2.22;65.84;94735.00;4147218;28;19957;-62
2023/02/05 01:18:36;;;;;;;;;;;;;;;-2.33;65.75;94729.63;4147397;28;19925;-61
2023/02/05 01:20:38;;;;;;;;;;;;;;;-2.20;66.67;94733.19;4147395;28;19972;-62
2023/02/05 01:22:40;;;;;;;;;;;;;;;-2.22;66.35;94729.88;4147680;28;20411;-62
2023/02/05 01:24:41;;;;;;;;;;;;;;;-2.15;66.10;94732.94;4145766;28;20279;-61
2023/02/05 01:26:43;;;;;;;;;;;;;;;-2.26;66.35;94738.63;4154400;28;19920;-62
2023/02/05 01:28:45;;;;;;;;;;;;;;;-2.32;66.21;94736.41;4149461;28;20016;-64
2023/02/05 01:30:47;;;;;;;;;;;;;;;-2.43;66.24;94734.41;4146410;28;19925;-60
2023/02/05 01:32:49;;;;;;;;;;;;;;;-2.44;66.60;94737.88;4145486;28;19921;-62
2023/02/05 01:34:50;;;;;;;;;;;;;;;-2.43;66.70;94734.41;4144090;28;19925;-59
2023/02/05 01:36:52;;;;;;;;;;;;;;;-2.34;66.73;94733.09;4141750;28;20265;-62
2023/02/05 01:38:53;;;;;;;;;;;;;;;-2.37;67.14;94753.78;4142935;28;19960;-61
2023/02/05 01:40:55;;;;;;;;;;;;;;;-2.43;66.98;94736.97;4133915;28;19956;-61
2023/02/05 01:42:56;;;;;;;;;;;;;;;-2.50;67.89;94751.03;4149946;28;19921;-60
2023/02/05 01:45:16;;;;;;;;;;;;;;;-2.42;68.54;94741.19;4143712;28;20028;-60
2023/02/05 01:47:18;;;;;;;;;;;;;;;-2.44;68.98;94757.56;4131114;28;19922;-63
2023/02/05 01:49:27;;;;;;;;;;;;;;;-2.76;70.18;94752.34;4143647;28;19961;-62
2023/02/05 01:51:29;;;;;;;;;;;;;;;-2.64;70.26;94751.75;4130407;28;19921;-59
2023/02/05 01:53:31;;;;;;;;;;;;;;;-2.70;70.24;94749.47;4129592;28;19926;-61
2023/02/05 01:55:34;;;;;;;;;;;;;;;-2.77;69.93;94758.41;4143835;28;20015;-60
2023/02/05 01:57:36;;;;;;;;;;;;;;;-2.58;70.19;94759.13;4140294;28;19922;-64
2023/02/05 01:59:37;;;;;;;;;;;;;;;-2.58;70.06;94759.13;4146906;28;19921;-60
2023/02/05 02:01:39;;;;;;;;;;;;;;;-2.65;69.68;94762.88;4144799;28;20446;-59
2023/02/05 02:03:41;;;;;;;;;;;;;;;-2.71;69.28;94758.06;4147010;28;20360;-60
2023/02/05 02:05:42;;;;;;;;;;;;;;;-2.72;69.61;94766.69;4147264;28;19983;-61
2023/02/05 02:07:44;;;;;;;;;;;;;;;-2.59;69.17;94766.88;4143338;28;19921;-61
2023/02/05 02:09:46;;;;;;;;;;;;;;;-2.62;68.47;94765.31;4133817;28;19958;-63
2023/02/05 02:11:47;;;;;;;;;;;;;;;-2.58;67.44;94773.66;4145185;28;19922;-59
2023/02/05 02:13:49;;;;;;;;;;;;;;;-2.59;67.32;94759.19;4140262;28;19949;-61
2023/02/05 02:15:51;;;;;;;;;;;;;;;-2.63;66.79;94757.69;4139445;28;19929;-62
2023/02/05 02:17:54;;;;;;;;;;;;;;;-2.57;67.01;94768.47;4146627;28;19925;-61
2023/02/05 02:20:08;;;;;;;;;;;;;;;-2.62;66.71;94777.31;4141300;28;19980;-63
2023/02/05 02:22:28;;;;;;;;;;;;;;;-2.45;66.44;94777.28;4123940;28;20292;-63
2023/02/05 02:24:33;;;;;;;;;;;;;;;-2.70;66.41;94775.13;4140525;28;19957;-62
2023/02/05 02:26:43;;;;;;;;;;;;;;;-2.73;67.16;94773.56;4129008;28;19928;-63
2023/02/05 02:28:45;;;;;;;;;;;;;;;-2.94;68.42;94770.31;4128464;28;19984;-64
2023/02/05 02:30:50;;;;;;;;;;;;;;;-2.80;67.88;94779.06;4128587;28;19929;-62
2023/02/05 02:32:55;;;;;;;;;;;;;;;-2.76;67.47;94772.88;4145569;28;19921;-63
2023/02/05 02:35:16;;;;;;;;;;;;;;;-2.80;68.63;94771.34;4128604;28;19988;-62
2023/02/05 02:37:21;;;;;;;;;;;;;;;-2.77;68.79;94776.34;4129015;28;20042;-63
2023/02/05 02:39:30;;;;;;;;;;;;;;;-2.90;68.40;94784.66;4139831;28;20371;-63
2023/02/05 02:41:37;;;;;;;;;;;;;;;-2.94;68.48;94775.44;4122690;28;20024;-62
2023/02/05 02:43:55;;;;;;;;;;;;;;;-2.87;68.08;94778.53;4135657;28;20380;-64
2023/02/05 02:46:02;;;;;;;;;;;;;;;-2.87;68.67;94781.09;4132900;28;20009;-63
2023/02/05 02:48:04;;;;;;;;;;;;;;;-3.01;69.61;94784.34;4128447;28;19968;-63
2023/02/05 02:50:08;;;;;;;;;;;;;;;-2.92;69.03;94789.00;4141849;28;20331;-62
2023/02/05 02:52:10;;;;;;;;;;;;;;;-2.99;69.45;94785.09;4128749;28;19926;-62
2023/02/05 02:54:12;;;;;;;;;;;;;;;-2.90;69.86;94791.50;4163484;28;20347;-62
2023/02/05 02:56:14;;;;;;;;;;;;;;;-2.86;69.71;94779.34;4144524;28;19959;-63
2023/02/05 02:58:18;;;;;;;;;;;;;;;-2.89;69.39;94781.16;4128146;28;19949;-62
2023/02/05 03:00:24;;;;;;;;;;;;;;;-2.88;69.64;94790.53;4131491;28;19929;-62
2023/02/05 03:02:26;;;;;;;;;;;;;;;-2.91;69.99;94779.59;4139229;28;19922;-63
2023/02/05 03:04:28;;;;;;;;;;;;;;;-3.01;70.17;94796.31;4128770;28;20024;-62
2023/02/05 03:06:30;;;;;;;;;;;;;;;-3.05;70.09;94802.50;4137152;28;20375;-62
2023/02/05 03:08:36;;;;;;;;;;;;;;;-3.05;69.20;94794.81;4129315;28;20420;-64
2023/02/05 03:10:42;;;;;;;;;;;;;;;-3.10;69.89;94807.84;4137605;28;20345;-63
2023/02/05 03:12:43;;;;;;;;;;;;;;;-3.04;70.03;94805.00;4144390;28;19922;-64
2023/02/05 03:14:45;;;;;;;;;;;;;;;-2.96;69.57;94804.63;4131402;28;19930;-61
2023/02/05 03:16:46;;;;;;;;;;;;;;;-3.03;69.54;94791.28;4129918;28;19926;-61
2023/02/05 03:18:48;;;;;;;;;;;;;;;-3.00;69.86;94800.56;4136807;28;19953;-62
2023/02/05 03:20:53;;;;;;;;;;;;;;;-3.27;69.56;94805.25;4149885;28;20370;-62
2023/02/05 03:22:55;;;;;;;;;;;;;;;-3.19;70.67;94804.00;4142021;28;20003;-63
2023/02/05 03:24:56;;;;;;;;;;;;;;;-3.12;69.76;94813.06;4130283;28;20281;-63
2023/02/05 03:26:58;;;;;;;;;;;;;;;-3.06;69.58;94816.22;4130147;28;20019;-60
2023/02/05 03:29:00;;;;;;;;;;;;;;;-3.05;69.60;94815.31;4142995;28;19953;-63
2023/02/05 03:31:13;;;;;;;;;;;;;;;-3.08;69.74;94808.59;4140812;28;19929;-61
2023/02/05 03:33:26;;;;;;;;;;;;;;;-3.17;69.47;94809.06;4136599;28;19922;-61
2023/02/05 03:35:30;;;;;;;;;;;;;;;-3.29;70.59;94815.59;4128732;28;20005;-61
2023/02/05 03:37:33;;;;;;;;;;;;;;;-3.18;70.54;94817.66;4128934;28;19972;-61
2023/02/05 03:39:34;;;;;;;;;;;;;;;-3.03;69.97;94816.91;4130237;28;20004;-60
2023/02/05 03:41:56;;;;;;;;;;;;;;;-3.09;69.81;94814.66;4129964;28;20028;-62
2023/02/05 03:44:07;;;;;;;;;;;;;;;-3.09;69.08;94823.16;4141497;28;19922;-60
2023/02/05 03:46:29;;;;;;;;;;;;;;;-3.16;69.98;94811.56;4135048;28;19997;-61
2023/02/05 03:48:36;;;;;;;;;;;;;;;-3.12;70.48;94815.63;4145616;28;20516;-62
2023/02/05 03:50:50;;;;;;;;;;;;;;;-3.22;70.27;94813.59;4130013;28;19922;-61
2023/02/05 03:53:00;;;;;;;;;;;;;;;-3.09;69.60;94814.66;4138199;28;20331;-62
2023/02/05 03:55:07;;;;;;;;;;;;;;;-3.13;69.98;94820.81;4119755;28;19926;-63
2023/02/05 03:57:15;;;;;;;;;;;;;;;-3.25;70.13;94826.53;4145069;28;20022;-63
2023/02/05 03:59:16;;;;;;;;;;;;;;;-3.32;69.52;94829.38;4148946;28;19921;-61
2023/02/05 04:01:18;;;;;;;;;;;;;;;-3.40;70.03;94825.50;4130814;28;20300;-61
2023/02/05 04:03:20;;;;;;;;;;;;;;;-3.52;70.89;94830.31;4131332;28;19932;-61
2023/02/05 04:05:21;;;;;;;;;;;;;;;-3.54;71.13;94842.34;4148872;28;19997;-61
2023/02/05 04:07:23;;;;;;;;;;;;;;;-3.52;70.66;94834.59;4147840;28;19988;-61
2023/02/05 04:09:24;;;;;;;;;;;;;;;-3.59;70.48;94839.19;4148895;28;19988;-61
2023/02/05 04:11:26;;;;;;;;;;;;;;;-3.64;71.01;94840.28;4148362;28;19925;-62
2023/02/05 04:13:27;;;;;;;;;;;;;;;-3.56;70.55;94845.88;4147712;28;19988;-63
2023/02/05 04:15:29;;;;;;;;;;;;;;;-3.75;70.25;94849.28;4147547;28;19921;-61
2023/02/05 04:17:30;;;;;;;;;;;;;;;-3.60;71.06;94845.19;4149058;28;19925;-62
2023/02/05 04:19:32;;;;;;;;;;;;;;;-3.45;71.25;94859.03;4131100;28;20661;-62
2023/02/05 04:21:33;;;;;;;;;;;;;;;-3.51;69.77;94842.22;4148809;28;19922;-61
2023/02/05 04:23:35;;;;;;;;;;;;;;;-3.43;69.95;94844.41;4148771;28;19937;-61
2023/02/05 04:25:37;;;;;;;;;;;;;;;-3.48;69.76;94846.38;4148609;28;19929;-61
2023/02/05 04:27:38;;;;;;;;;;;;;;;-3.39;70.32;94843.38;4148435;28;19928;-63
2023/02/05 04:29:40;;;;;;;;;;;;;;;-3.42;69.66;94852.91;4147958;28;19921;-62
2023/02/05 04:31:41;;;;;;;;;;;;;;;-3.40;69.32;94853.69;4147250;28;20534;-63
2023/02/05 04:33:43;;;;;;;;;;;;;;;-3.38;69.40;94847.59;4146662;28;19936;-61
2023/02/05 04:35:45;;;;;;;;;;;;;;;-3.38;69.85;94849.31;4147428;28;19921;-63
2023/02/05 04:37:46;;;;;;;;;;;;;;;-3.43;69.62;94846.97;4147425;28;20295;-62
2023/02/05 04:39:48;;;;;;;;;;;;;;;-3.45;70.02;94855.63;4147362;28;19988;-61
2023/02/05 04:41:49;;;;;;;;;;;;;;;-3.47;69.01;94858.25;4146794;28;19933;-62
2023/02/05 04:43:51;;;;;;;;;;;;;;;-3.60;70.31;94855.44;4146808;28;19968;-62
2023/02/05 04:45:52;;;;;;;;;;;;;;;-3.84;71.27;94861.69;4147366;28;20284;-62
2023/02/05 04:47:55;;;;;;;;;;;;;;;-3.78;71.75;94858.84;4147445;28;19922;-62
2023/02/05 04:49:56;;;;;;;;;;;;;;;-3.79;71.96;94868.22;4147060;28;19928;-63
2023/02/05 04:51:58;;;;;;;;;;;;;;;-3.84;71.69;94864.25;4146411;28;19921;-61
2023/02/05 04:54:00;;;;;;;;;;;;;;;-3.80;72.57;94866.59;4150866;28;20597;-61
2023/02/05 04:56:11;;;;;;;;;;;;;;;-3.75;71.94;94863.81;4138969;28;20015;-61
2023/02/05 04:58:13;;;;;;;;;;;;;;;-3.81;72.21;94870.03;4146473;28;19925;-61
2023/02/05 05:00:14;;;;;;;;;;;;;;;-3.86;72.66;94877.09;4147841;28;20367;-62
2023/02/05 05:02:16;;;;;;;;;;;;;;;-3.86;72.12;94871.97;4134275;28;20004;-61
2023/02/05 05:04:17;;;;;;;;;;;;;;;-3.75;72.64;94877.44;4148072;28;19921;-62
2023/02/05 05:06:19;;;;;;;;;;;;;;;-3.58;73.05;94879.25;4145999;28;19944;-63
2023/02/05 05:08:21;;;;;;;;;;;;;;;-3.54;71.74;94882.50;4144946;28;19932;-63
2023/02/05 05:10:22;;;;;;;;;;;;;;;-3.59;72.03;94882.72;4147691;28;20011;-61
2023/02/05 05:12:23;;;;;;;;;;;;;;;-3.65;72.50;94880.44;4146879;28;20011;-62
2023/02/05 05:14:25;;;;;;;;;;;;;;;-3.67;72.52;94881.41;4147851;28;19973;-62
2023/02/05 05:16:26;;;;;;;;;;;;;;;-3.67;72.13;94886.53;4129568;28;20317;-62
2023/02/05 05:18:28;;;;;;;;;;;;;;;-3.58;72.71;94884.38;4134698;28;19922;-63
2023/02/05 05:20:29;;;;;;;;;;;;;;;-3.61;72.64;94883.69;4154560;28;19959;-63
2023/02/05 05:22:31;;;;;;;;;;;;;;;-3.64;73.09;94888.94;4153584;28;19922;-62
2023/02/05 05:24:33;;;;;;;;;;;;;;;-3.59;72.19;94892.97;4147776;28;19928;-64
2023/02/05 05:26:34;;;;;;;;;;;;;;;-3.47;72.67;94889.00;4151089;28;20049;-62
2023/02/05 05:28:36;;;;;;;;;;;;;;;-3.44;72.73;94901.69;4171219;28;20315;-63
2023/02/05 05:30:38;;;;;;;;;;;;;;;-3.48;71.50;94897.59;4146701;28;20403;-63
2023/02/05 05:32:39;;;;;;;;;;;;;;;-3.43;71.86;94894.81;4128907;28;19928;-63
2023/02/05 05:34:41;;;;;;;;;;;;;;;-3.50;72.05;94901.97;4147156;28;19941;-60
2023/02/05 05:36:43;;;;;;;;;;;;;;;-3.57;72.13;94914.22;4148128;28;19921;-61
2023/02/05 05:38:44;;;;;;;;;;;;;;;-3.57;72.73;94914.22;4136534;28;20291;-62
2023/02/05 05:45:28;;;;;;;;;;;;;;;-3.78;73.89;94926.22;4142487;28;19933;-61
2023/02/05 05:47:29;;;;;;;;;;;;;;;-3.73;73.42;94929.41;4132396;28;20500;-63
2023/02/05 05:49:31;;;;;;;;;;;;;;;-3.69;73.98;94926.72;4131343;28;19921;-63
2023/02/05 05:51:32;;;;;;;;;;;;;;;-3.71;74.34;94935.28;4131610;28;20140;-63
2023/02/05 05:53:34;;;;;;;;;;;;;;;-3.66;73.25;94934.25;4132927;28;19926;-64
2023/02/05 05:55:35;;;;;;;;;;;;;;;-3.57;73.22;94923.59;4137328;28;19921;-62
2023/02/05 05:57:37;;;;;;;;;;;;;;;-3.57;73.69;94929.56;4142200;28;19972;-62
2023/02/05 05:59:39;;;;;;;;;;;;;;;-3.47;72.80;94936.84;4140454;28;20414;-62
2023/02/05 06:01:40;;;;;;;;;;;;;;;-3.41;72.65;94939.13;4140880;28;19928;-63
2023/02/05 06:03:42;;;;;;;;;;;;;;;-3.34;72.97;94932.81;4146465;28;20011;-64
2023/02/05 06:05:43;;;;;;;;;;;;;;;-3.31;71.79;94941.22;4146864;28;19980;-63
2023/02/05 06:07:45;;;;;;;;;;;;;;;-3.47;71.99;94937.66;4150872;28;19925;-62
2023/02/05 06:09:46;;;;;;;;;;;;;;;-3.41;72.13;94946.81;4146952;28;19962;-63
2023/02/05 06:11:48;;;;;;;;;;;;;;;-3.36;72.96;94942.31;4145565;28;20454;-63
2023/02/05 06:13:49;;;;;;;;;;;;;;;-3.36;71.64;94950.00;4147131;28;20398;-63
2023/02/05 06:15:51;;;;;;;;;;;;;;;-3.31;72.10;94948.88;4146589;28;19952;-63
2023/02/05 06:17:53;;;;;;;;;;;;;;;-3.30;71.69;94955.66;4147374;28;20595;-64
2023/02/05 06:19:54;;;;;;;;;;;;;;;-3.39;71.31;94962.94;4146046;28;19925;-64
2023/02/05 06:21:56;;;;;;;;;;;;;;;-3.50;71.30;94965.97;4147109;28;20017;-63
2023/02/05 06:23:57;;;;;;;;;;;;;;;-3.50;72.27;94971.94;4126194;28;19921;-64
2023/02/05 06:25:59;;;;;;;;;;;;;;;-3.47;72.08;94975.25;4140135;28;19971;-63
2023/02/05 06:28:00;;;;;;;;;;;;;;;-3.48;71.93;94974.44;4146237;28;20643;-62
2023/02/05 06:30:03;;;;;;;;;;;;;;;-3.44;71.81;94972.53;4146198;28;20135;-66
2023/02/05 06:32:04;;;;;;;;;;;;;;;-3.46;72.56;94977.75;4136754;28;19972;-64
2023/02/05 06:34:06;;;;;;;;;;;;;;;-3.47;71.93;94986.31;4136095;28;19922;-64
2023/02/05 06:36:07;;;;;;;;;;;;;;;-3.48;71.76;94991.50;4131081;28;20241;-64
2023/02/05 06:38:09;;;;;;;;;;;;;;;-3.43;71.63;94985.28;4131384;28;19922;-62
2023/02/05 06:40:10;;;;;;;;;;;;;;;-3.36;71.59;94988.41;4131282;28;19979;-63
2023/02/05 06:42:12;;;;;;;;;;;;;;;-3.38;71.96;94991.03;4129906;28;19922;-63
2023/02/05 06:44:13;;;;;;;;;;;;;;;-3.42;71.43;94983.56;4146546;28;19972;-64
2023/02/05 06:46:15;;;;;;;;;;;;;;;-3.51;71.53;94995.91;4145574;28;19922;-63
2023/02/05 06:48:17;;;;;;;;;;;;;;;-3.59;71.94;95000.50;4128705;28;19944;-62
2023/02/05 06:50:19;;;;;;;;;;;;;;;-3.55;72.06;95007.16;4146372;28;20446;-63
2023/02/05 06:52:21;;;;;;;;;;;;;;;-3.55;72.27;95004.59;4142209;28;19922;-64
2023/02/05 06:54:22;;;;;;;;;;;;;;;-3.48;71.78;95009.44;4131095;28;20284;-63
2023/02/05 06:56:24;;;;;;;;;;;;;;;-3.55;71.78;95014.84;4134171;28;19925;-64
2023/02/05 06:58:25;;;;;;;;;;;;;;;-3.44;71.15;95016.09;4134307;28;19921;-63
2023/02/05 07:00:27;;;;;;;;;;;;;;;-3.28;71.78;95011.97;4135462;28;19952;-63
2023/02/05 07:02:30;;;;;;;;;;;;;;;-3.19;70.85;95013.28;4134267;28;20404;-63
2023/02/05 07:04:31;;;;;;;;;;;;;;;-3.23;70.36;95010.03;4141292;28;19922;-63
2023/02/05 07:06:33;;;;;;;;;;;;;;;-3.24;70.72;95018.63;4142670;28;20292;-64
2023/02/05 07:08:34;;;;;;;;;;;;;;;-3.78;71.03;95020.94;4134131;28;19929;-64
2023/02/05 07:10:36;;;;;;;;;;;;;;;-3.80;72.29;95019.34;4141663;28;19945;-64
2023/02/05 07:12:37;;;;;;;;;;;;;;;-3.64;72.71;95020.34;4145603;28;19928;-65
2023/02/05 07:14:39;;;;;;;;;;;;;;;-3.41;71.68;95019.34;4137802;28;19921;-64
2023/02/05 07:16:41;;;;;;;;;;;;;;;-3.71;71.71;95026.63;4145327;28;19922;-64
2023/02/05 07:18:42;;;;;;;;;;;;;;;-3.74;71.02;95029.34;4140329;28;19926;-61
2023/02/05 07:20:44;;;;;;;;;;;;;;;-3.99;71.44;95037.22;4133924;28;19930;-65
2023/02/05 07:22:46;;;;;;;;;;;;;;;-4.17;72.68;95034.50;4137442;28;20354;-63
2023/02/05 07:24:47;;;;;;;;;;;;;;;-3.93;73.50;95034.41;4134654;28;20316;-63
2023/02/05 07:26:49;;;;;;;;;;;;;;;-3.61;73.20;95037.34;4133285;28;19928;-63
2023/02/05 07:28:50;;;;;;;;;;;;;;;-3.43;71.60;95033.97;4142248;28;20470;-63
2023/02/05 07:30:52;;;;;;;;;;;;;;;-3.73;71.74;95043.78;4145944;28;20355;-63
2023/02/05 07:32:53;;;;;;;;;;;;;;;-3.77;71.63;95039.69;4134981;28;19921;-65
2023/02/05 07:34:55;;;;;;;;;;;;;;;-4.00;72.27;95040.66;4143028;28;20399;-64
2023/02/05 07:36:56;;;;;;;;;;;;;;;-4.00;74.40;95036.38;4143063;28;19921;-63
2023/02/05 07:38:58;;;;;;;;;;;;;;;-3.80;74.14;95044.97;4149255;28;19923;-64
2023/02/05 07:41:03;;;;;;;;;;;;;;;-3.94;73.75;95042.94;4149397;28;19960;-63
2023/02/05 07:43:05;;;;;;;;;;;;;;;-3.92;74.26;95044.53;4141320;28;20515;-63
2023/02/05 07:45:06;;;;;;;;;;;;;;;-4.05;74.34;95047.69;4144182;28;19975;-65
2023/02/05 07:47:08;;;;;;;;;;;;;;;-4.38;75.33;95054.09;4147776;28;20008;-62
2023/02/05 07:49:10;;;;;;;;;;;;;;;-4.26;76.00;95052.75;4149321;28;19928;-64
2023/02/05 07:51:14;;;;;;;;;;;;;;;-4.34;76.04;95062.50;4148778;28;19927;-64
2023/02/05 07:53:15;;;;;;;;;;;;;;;-4.55;76.65;95064.97;4131806;28;19933;-63
2023/02/05 07:55:17;;;;;;;;;;;;;;;-4.47;77.49;95067.25;4148746;28;20291;-67
2023/02/05 07:57:18;;;;;;;;;;;;;;;-4.20;77.17;95067.88;4146542;28;19952;-62
2023/02/05 07:59:20;;;;;;;;;;;;;;;-4.26;75.70;95068.13;4132922;28;19921;-63
2023/02/05 08:01:21;;;;;;;;;;;;;;;-4.14;76.85;95066.81;4141100;28;19979;-63
2023/02/05 08:03:23;;;;;;;;;;;;;;;-4.02;76.07;95066.31;4149050;28;20339;-61
2023/02/05 08:05:24;;;;;;;;;;;;;;;-4.07;75.84;95072.50;4134155;28;20427;-62
2023/02/05 08:07:26;;;;;;;;;;;;;;;-4.16;75.76;95071.97;4150290;28;19966;-63
2023/02/05 08:09:27;;;;;;;;;;;;;;;-4.08;75.88;95075.97;4140992;28;19921;-67
2023/02/05 08:11:29;;;;;;;;;;;;;;;-4.10;76.00;95090.56;4145343;28;20043;-63
2023/02/05 08:13:33;;;;;;;;;;;;;;;-4.22;75.25;95079.88;4133182;28;19961;-65
2023/02/05 08:15:37;;;;;;;;;;;;;;;-4.18;76.20;95076.31;4121653;28;19928;-63
2023/02/05 08:17:38;;;;;;;;;;;;;;;-3.94;75.52;95078.78;4138590;28;19929;-64
2023/02/05 08:19:41;;;;;;;;;;;;;;;-3.61;74.66;95081.69;4132962;28;19973;-65
2023/02/05 08:21:42;;;;;;;;;;;;;;;-3.66;73.04;95087.88;4119752;28;20015;-66
2023/02/05 08:23:44;;;;;;;;;;;;;;;-3.86;73.82;95088.72;4147676;28;19953;-64
2023/02/05 08:25:45;;;;;;;;;;;;;;;-3.63;74.05;95092.91;4149136;28;19925;-65
2023/02/05 08:27:48;;;;;;;;;;;;;;;-3.52;74.07;95098.41;4147433;28;19992;-63
2023/02/05 08:29:49;;;;;;;;;;;;;;;-3.39;72.24;95098.72;4135860;28;19921;-66
2023/02/05 08:31:51;;;;;;;;;;;;;;;-3.09;72.38;95088.88;4147301;28;19921;-63
2023/02/05 08:33:55;;;;;;;;;;;;;;;-2.91;71.35;95088.03;4152676;28;20025;-64
2023/02/05 08:35:56;;;;;;;;;;;;;;;-3.26;70.54;95088.78;4146347;28;19983;-64
2023/02/05 08:37:58;;;;;;;;;;;;;;;-3.33;70.68;95101.84;4132966;28;20241;-63
2023/02/05 08:39:59;;;;;;;;;;;;;;;-3.41;71.43;95088.53;4132559;28;19965;-62
2023/02/05 08:42:01;;;;;;;;;;;;;;;-3.31;71.82;95094.91;4143332;28;20490;-63
2023/02/05 08:44:02;;;;;;;;;;;;;;;-3.03;70.36;95085.19;4148801;28;19925;-65
2023/02/05 08:46:04;;;;;;;;;;;;;;;-3.15;69.00;95091.69;4148425;28;19926;-63
2023/02/05 08:48:05;;;;;;;;;;;;;;;-3.11;68.15;95086.38;4148258;28;19952;-64
2023/02/05 08:50:07;;;;;;;;;;;;;;;-2.98;68.34;95086.66;4149056;28;19922;-63
2023/02/05 08:52:09;;;;;;;;;;;;;;;-2.97;67.41;95090.03;4148668;28;19929;-63
2023/02/05 08:54:12;;;;;;;;;;;;;;;-2.86;65.13;95092.97;4149031;28;20295;-64
2023/02/05 08:56:14;;;;;;;;;;;;;;;-2.89;63.89;95096.50;4149212;28;20327;-63
2023/02/05 08:58:16;;;;;;;;;;;;;;;-2.98;63.93;95094.34;4148821;28;19925;-63
2023/02/05 09:00:18;;;;;;;;;;;;;;;-3.12;63.85;95097.53;4149344;28;20360;-64
2023/02/05 09:02:20;;;;;;;;;;;;;;;-3.32;64.16;95102.66;4147563;28;19925;-63
2023/02/05 09:04:22;;;;;;;;;;;;;;;-3.34;64.33;95109.59;4148182;28;19922;-64
2023/02/05 09:06:23;;;;;;;;;;;;;;;-3.01;63.27;95109.88;4150498;28;19921;-64
2023/02/05 09:08:25;;;;;;;;;;;;;;;-2.73;63.33;95117.16;4144323;28;19925;-64
2023/02/05 09:10:27;;;;;;;;;;;;;;;-2.82;61.92;95116.72;4148356;28;19928;-64
2023/02/05 09:12:29;;;;;;;;;;;;;;;-3.01;62.33;95116.72;4147243;28;20376;-64
2023/02/05 09:14:36;;;;;;;;;;;;;;;-3.08;62.65;95118.72;4148073;28;20316;-65
2023/02/05 09:16:38;;;;;;;;;;;;;;;-3.15;62.32;95125.00;4146180;28;20203;-65
2023/02/05 09:18:40;;;;;;;;;;;;;;;-3.28;62.36;95134.13;4133660;28;20400;-65
2023/02/05 09:20:42;;;;;;;;;;;;;;;-3.50;62.49;95130.72;4133075;28;19921;-64
2023/02/05 09:22:43;;;;;;;;;;;;;;;-3.49;62.72;95123.88;4143622;28;19944;-65
2023/02/05 09:24:45;;;;;;;;;;;;;;;-3.38;61.90;95129.38;4147865;28;19921;-65
2023/02/05 09:26:46;;;;;;;;;;;;;;;-3.37;62.22;95125.09;4142938;28;20347;-63
2023/02/05 09:28:48;;;;;;;;;;;;;;;-3.27;61.40;95125.53;4140140;28;19921;-64
2023/02/05 09:30:50;;;;;;;;;;;;;;;-3.10;62.33;95128.19;4146846;28;19922;-63
2023/02/05 09:32:52;;;;;;;;;;;;;;;-3.07;61.79;95138.34;4133905;28;19996;-64
2023/02/05 09:34:53;;;;;;;;;;;;;;;-3.39;60.71;95132.00;4131489;28;19921;-64
2023/02/05 09:36:55;;;;;;;;;;;;;;;-3.41;62.29;95138.94;4131344;28;19922;-63
2023/02/05 09:38:56;;;;;;;;;;;;;;;-3.64;62.67;95137.31;4144445;28;20024;-65
2023/02/05 09:41:25;;;;;;;;;;;;;;;-3.56;61.55;95142.97;4137606;28;19922;-64
2023/02/05 09:43:33;;;;;;;;;;;;;;;-3.72;61.86;95133.34;4145951;28;19929;-64
2023/02/05 09:45:34;;;;;;;;;;;;;;;-3.75;61.85;95136.00;4134577;28;19922;-65
2023/02/05 09:47:45;;;;;;;;;;;;;;;-3.59;62.24;95143.06;4141126;28;19956;-63
2023/02/05 09:49:47;;;;;;;;;;;;;;;-3.75;61.05;95136.00;4132064;28;20455;-65
2023/02/05 09:51:49;;;;;;;;;;;;;;;-3.43;62.14;95141.53;4156544;28;19921;-64
2023/02/05 09:53:52;;;;;;;;;;;;;;;-3.25;61.61;95131.41;4146918;28;19949;-62
2023/02/05 09:56:04;;;;;;;;;;;;;;;-3.36;61.03;95137.81;4134721;28;20426;-64
2023/02/05 09:58:06;;;;;;;;;;;;;;;-3.40;61.10;95131.19;4130074;28;19922;-64
2023/02/05 10:00:27;;;;;;;;;;;;;;;-3.23;61.14;95139.88;4125929;28;19930;-64
2023/02/05 10:02:32;;;;;;;;;;;;;;;-3.16;60.57;95131.00;4121431;28;19960;-65
2023/02/05 10:04:33;;;;;;;;;;;;;;;-3.31;60.99;95135.91;4134348;28;19975;-63
2023/02/05 10:06:40;;;;;;;;;;;;;;;-3.31;60.88;95133.34;4140473;28;20364;-63
2023/02/05 10:08:51;;;;;;;;;;;;;;;-3.35;60.40;95134.38;4145682;28;19921;-64
2023/02/05 10:10:53;;;;;;;;;;;;;;;-3.22;61.39;95137.25;4143110;28;19984;-63
2023/02/05 10:13:01;;;;;;;;;;;;;;;-3.29;59.15;95143.53;4128045;28;20020;-63
2023/02/05 10:15:09;;;;;;;;;;;;;;;-3.45;59.63;95142.50;4156501;28;19921;-65
2023/02/05 10:17:33;;;;;;;;;;;;;;;-3.33;60.59;95140.28;4128741;28;19953;-62
2023/02/05 10:19:35;;;;;;;;;;;;;;;-3.18;60.49;95151.59;4135625;28;19928;-63
2023/02/05 10:22:00;;;;;;;;;;;;;;;-3.27;59.73;95143.47;4141893;28;19980;-64
2023/02/05 10:24:23;;;;;;;;;;;;;;;-3.45;59.65;95142.50;4136467;28;19921;-63
2023/02/05 10:26:26;;;;;;;;;;;;;;;-3.27;59.10;95140.91;4122904;28;19926;-63
2023/02/05 10:28:50;;;;;;;;;;;;;;;-3.14;58.85;95142.88;4126427;28;19969;-63
2023/02/05 10:30:51;;;;;;;;;;;;;;;-3.11;59.37;95139.34;4129940;28;19960;-65
2023/02/05 10:33:00;;;;;;;;;;;;;;;-3.19;58.06;95151.66;4142360;28;19933;-63
2023/02/05 10:35:11;;;;;;;;;;;;;;;-3.18;58.56;95156.72;4162337;28;19960;-63
2023/02/05 10:37:17;;;;;;;;;;;;;;;-3.22;57.64;95155.19;4146184;28;19949;-64
2023/02/05 10:39:20;;;;;;;;;;;;;;;-3.35;58.82;95154.88;4146708;28;19972;-63
2023/02/05 10:41:29;;;;;;;;;;;;;;;-3.06;58.55;95147.66;4147046;28;19925;-64
2023/02/05 10:44:00;;;;;;;;;;;;;;;-2.81;58.13;95149.19;4146040;28;19921;-63
2023/02/05 10:46:02;;;;;;;;;;;;;;;-2.86;57.46;95146.81;4137799;28;19952;-63
2023/02/05 10:48:15;;;;;;;;;;;;;;;-3.09;56.25;95147.81;4129201;28;19922;-64